Time;durP1;ratioP1;P1;durP2;ratioP2;P2;SDS_P1;SDS_P2;PMS_P1;PMS_P2;Temp;Humidity;BMP_temperature;BMP_pressure;BME280_temperature;BME280_humidity;BME280_pressure;Samples;Min_cycle;Max_cycle;Signal;HPM_P1;HPM_P2
2023/05/13 00:02:12;;;;;;;10.35;9.25;;;;;;;9.76;100.00;102194.34;4941790;29;20730;-52
2023/05/13 00:04:38;;;;;;;9.55;8.45;;;;;;;9.81;100.00;102201.41;4938873;29;20266;-50
2023/05/13 00:07:04;;;;;;;13.07;9.43;;;;;;;9.76;100.00;102199.69;4938427;29;20679;-51
2023/05/13 00:09:29;;;;;;;10.90;8.68;;;;;;;9.81;100.00;102196.03;4946231;29;20183;-49
2023/05/13 00:11:55;;;;;;;10.50;9.35;;;;;;;9.68;100.00;102187.28;4939728;29;20183;-48
2023/05/13 00:14:20;;;;;;;12.15;9.50;;;;;;;9.73;100.00;102189.00;4939240;29;20191;-49
2023/05/13 00:16:46;;;;;;;10.43;9.05;;;;;;;9.61;100.00;102190.94;4937982;29;20174;-51
2023/05/13 00:19:12;;;;;;;10.82;8.77;;;;;;;9.68;100.00;102191.75;4939794;29;20343;-53
2023/05/13 00:21:37;;;;;;;8.90;8.13;;;;;;;9.66;100.00;102198.91;4923444;29;20224;-51
2023/05/13 00:24:04;;;;;;;10.35;8.65;;;;;;;9.63;100.00;102196.28;4937929;29;20223;-48
2023/05/13 00:26:29;;;;;;;10.50;8.40;;;;;;;9.60;100.00;102186.50;4937783;29;20207;-49
2023/05/13 00:28:55;;;;;;;9.48;8.00;;;;;;;9.56;100.00;102189.25;4935508;29;20227;-51
2023/05/13 00:31:20;;;;;;;10.18;8.93;;;;;;;9.53;100.00;102194.63;4935240;29;20195;-52
2023/05/13 00:33:46;;;;;;;9.05;8.13;;;;;;;9.55;100.00;102192.81;4937939;29;20274;-51
2023/05/13 00:36:12;;;;;;;11.68;8.32;;;;;;;9.63;100.00;102189.13;4932565;29;20684;-51
2023/05/13 00:38:38;;;;;;;9.30;8.00;;;;;;;9.62;100.00;102183.78;4940164;29;20183;-51
2023/05/13 00:41:04;;;;;;;9.75;8.10;;;;;;;9.69;100.00;102199.78;4931710;29;20212;-51
2023/05/13 00:43:30;;;;;;;9.73;8.55;;;;;;;9.49;100.00;102185.75;4938623;28;20589;-49
2023/05/13 00:45:55;;;;;;;7.38;6.68;;;;;;;9.39;100.00;102190.31;4937321;29;20189;-52
2023/05/13 00:48:21;;;;;;;8.68;7.63;;;;;;;9.47;100.00;102191.13;4922767;29;20631;-51
2023/05/13 00:50:48;;;;;;;13.15;8.25;;;;;;;9.36;100.00;102189.44;4938710;29;20183;-51
2023/05/13 00:53:15;;;;;;;9.50;8.63;;;;;;;9.31;100.00;102189.50;4938227;28;20231;-46
2023/05/13 00:55:45;;;;;;;9.95;8.98;;;;;;;9.20;100.00;102196.78;4946170;29;20190;-47
2023/05/13 00:58:12;;;;;;;9.68;8.70;;;;;;;9.02;100.00;102190.72;4940405;29;20187;-48
2023/05/13 01:01:06;;;;;;;11.00;8.55;;;;;;;9.03;100.00;102192.50;4945226;29;20194;-45
2023/05/13 01:04:03;;;;;;;9.52;8.48;;;;;;;9.13;100.00;102197.75;4937380;28;20298;-47
2023/05/13 01:07:06;;;;;;;8.80;7.65;;;;;;;9.20;100.00;102199.44;4944887;29;20662;-48
2023/05/13 01:10:07;;;;;;;9.45;8.40;;;;;;;9.14;100.00;102195.06;4931590;29;20234;-48
2023/05/13 01:12:37;;;;;;;11.77;8.80;;;;;;;9.07;100.00;102188.91;4948321;28;20269;-48
2023/05/13 01:15:09;;;;;;;8.60;7.72;;;;;;;9.14;100.00;102199.50;4948141;29;20205;-48
2023/05/13 01:17:58;;;;;;;9.80;8.77;;;;;;;9.08;100.00;102201.34;4952021;29;20159;-47
2023/05/13 01:20:27;;;;;;;9.50;8.60;;;;;;;9.04;100.00;102204.06;4950135;29;20287;-48
2023/05/13 01:22:53;;;;;;;9.65;8.02;;;;;;;9.04;100.00;102209.41;4931145;29;20612;-47
2023/05/13 01:25:19;;;;;;;9.70;8.70;;;;;;;8.91;100.00;102208.63;4915432;29;20187;-47
2023/05/13 01:27:45;;;;;;;9.55;7.50;;;;;;;8.99;100.00;102206.78;4899965;29;20262;-49
2023/05/13 01:30:12;;;;;;;12.63;9.48;;;;;;;8.78;100.00;102205.19;4931323;29;20187;-48
2023/05/13 01:32:38;;;;;;;8.77;7.88;;;;;;;8.83;100.00;102206.06;4931451;29;20258;-50
2023/05/13 01:35:05;;;;;;;11.05;8.38;;;;;;;8.85;100.00;102206.00;4932805;29;20191;-49
2023/05/13 01:37:34;;;;;;;10.65;8.65;;;;;;;8.74;100.00;102206.09;4915298;29;20179;-49
2023/05/13 01:40:00;;;;;;;9.52;8.63;;;;;;;8.72;100.00;102207.03;4932473;29;20763;-49
2023/05/13 01:42:30;;;;;;;10.18;9.15;;;;;;;8.71;100.00;102207.94;4948608;28;20221;-47
2023/05/13 01:44:56;;;;;;;10.05;8.75;;;;;;;8.76;100.00;102214.13;4948929;29;20178;-46
2023/05/13 01:47:22;;;;;;;9.75;8.80;;;;;;;8.76;100.00;102215.00;4934985;29;20174;-47
2023/05/13 01:49:47;;;;;;;11.70;9.55;;;;;;;8.72;100.00;102220.38;4935845;29;20635;-47
2023/05/13 01:52:13;;;;;;;12.75;9.32;;;;;;;8.58;100.00;102215.16;4940326;28;20214;-51
2023/05/13 01:54:38;;;;;;;8.68;7.75;;;;;;;8.66;100.00;102216.88;4946803;29;20274;-49
2023/05/13 01:57:08;;;;;;;12.52;9.18;;;;;;;8.62;100.00;102217.78;4937505;29;20171;-49
2023/05/13 01:59:34;;;;;;;9.88;8.98;;;;;;;8.65;100.00;102212.41;4930013;29;20194;-47
2023/05/13 02:02:00;;;;;;;16.20;9.35;;;;;;;8.50;100.00;102211.66;4945077;29;20195;-46
2023/05/13 02:04:26;;;;;;;9.57;8.77;;;;;;;8.51;100.00;102213.44;4945225;29;20266;-47
2023/05/13 02:06:52;;;;;;;10.48;9.43;;;;;;;8.53;100.00;102222.34;4923544;29;20225;-48
2023/05/13 02:09:18;;;;;;;8.90;8.10;;;;;;;8.60;100.00;102216.03;4954499;29;20249;-48
2023/05/13 02:11:45;;;;;;;9.02;8.13;;;;;;;8.60;100.00;102214.25;4951523;29;20171;-51
2023/05/13 02:14:10;;;;;;;10.90;8.65;;;;;;;8.54;100.00;102208.06;4944876;29;20202;-48
2023/05/13 02:16:36;;;;;;;10.25;8.57;;;;;;;8.44;100.00;102209.94;4954747;29;20163;-48
2023/05/13 02:19:05;;;;;;;13.07;9.48;;;;;;;8.41;100.00;102204.59;4929593;29;20661;-49
2023/05/13 02:21:31;;;;;;;8.98;8.18;;;;;;;8.38;100.00;102204.59;4933969;29;20203;-50
2023/05/13 02:23:56;;;;;;;10.57;8.73;;;;;;;8.41;100.00;102201.91;4945007;29;20211;-48
2023/05/13 02:26:22;;;;;;;12.25;9.85;;;;;;;8.29;100.00;102207.31;4935224;29;20180;-48
2023/05/13 02:28:47;;;;;;;11.15;9.82;;;;;;;8.30;100.00;102209.97;4935163;29;20175;-47
2023/05/13 02:31:13;;;;;;;9.50;8.55;;;;;;;8.34;100.00;102206.38;4933908;29;20522;-48
2023/05/13 02:33:41;;;;;;;12.02;10.57;;;;;;;8.16;100.00;102204.72;4938879;29;20207;-49
2023/05/13 02:36:07;;;;;;;12.00;10.90;;;;;;;7.96;100.00;102202.19;4943624;29;20179;-48
2023/05/13 02:38:33;;;;;;;11.80;10.70;;;;;;;7.96;100.00;102198.59;4919076;29;20243;-51
2023/05/13 02:41:00;;;;;;;11.95;10.75;;;;;;;8.03;100.00;102200.38;4930632;29;20237;-47
2023/05/13 02:43:26;;;;;;;12.07;10.95;;;;;;;8.02;100.00;102198.56;4952876;28;20191;-46
2023/05/13 02:45:56;;;;;;;12.73;11.25;;;;;;;8.01;100.00;102204.81;4933734;29;20187;-49
2023/05/13 02:48:22;;;;;;;13.52;12.15;;;;;;;8.05;100.00;102210.13;4934873;29;20548;-49
2023/05/13 02:50:48;;;;;;;12.70;11.40;;;;;;;8.18;100.00;102207.41;4934171;29;20222;-47
2023/05/13 02:53:14;;;;;;;14.88;13.48;;;;;;;8.19;100.00;102207.38;4940529;29;20266;-46
2023/05/13 02:55:45;;;;;;;17.48;15.77;;;;;;;8.11;100.00;102203.88;4955766;28;20185;-50
2023/05/13 02:58:12;;;;;;;15.68;14.02;;;;;;;8.16;100.00;102206.53;4945217;28;20195;-48
2023/05/13 03:00:37;;;;;;;17.00;15.32;;;;;;;8.16;100.00;102206.53;4934186;29;20581;-49
2023/05/13 03:03:03;;;;;;;16.23;14.57;;;;;;;8.23;100.00;102208.25;4953408;28;20294;-48
2023/05/13 03:05:28;;;;;;;17.35;15.45;;;;;;;8.21;100.00;102210.91;4946460;28;20215;-48
2023/05/13 03:07:54;;;;;;;16.75;15.00;;;;;;;8.28;100.00;102197.53;4953328;28;20244;-51
2023/05/13 03:10:19;;;;;;;20.77;18.77;;;;;;;8.28;100.00;102194.88;4950875;28;20210;-47
2023/05/13 03:12:45;;;;;;;17.77;16.15;;;;;;;8.17;100.00;102202.94;4951808;28;20191;-48
2023/05/13 03:15:11;;;;;;;18.75;16.65;;;;;;;8.20;100.00;102202.94;4960129;28;20182;-49
2023/05/13 03:17:37;;;;;;;15.98;14.50;;;;;;;8.14;100.00;102193.16;4961578;28;20194;-46
2023/05/13 03:20:03;;;;;;;18.52;16.75;;;;;;;8.07;100.00;102204.78;4942171;29;20178;-49
2023/05/13 03:22:30;;;;;;;18.63;16.73;;;;;;;8.02;100.00;102198.56;4936050;28;20735;-48
2023/05/13 03:24:57;;;;;;;18.15;16.42;;;;;;;8.03;100.00;102211.03;4948686;29;20297;-48
2023/05/13 03:27:26;;;;;;;19.25;17.38;;;;;;;8.03;100.00;102205.69;4933478;29;20187;-49
2023/05/13 03:29:51;;;;;;;18.88;16.95;;;;;;;8.09;100.00;102205.66;4939456;29;20191;-47
2023/05/13 03:32:18;;;;;;;19.13;17.10;;;;;;;8.09;100.00;102200.34;4946524;28;20335;-49
2023/05/13 03:34:43;;;;;;;20.60;18.63;;;;;;;8.08;100.00;102203.88;4946335;28;20319;-49
2023/05/13 03:37:09;;;;;;;18.80;16.90;;;;;;;8.10;100.00;102207.44;4949476;29;20273;-49
2023/05/13 03:39:35;;;;;;;17.77;16.08;;;;;;;8.03;100.00;102206.56;4951269;29;20171;-53
2023/05/13 03:42:01;;;;;;;16.67;15.15;;;;;;;8.14;100.00;102209.19;4941231;28;20203;-50
2023/05/13 03:44:27;;;;;;;16.70;15.10;;;;;;;8.10;100.00;102202.09;4947927;29;20258;-51
2023/05/13 03:46:53;;;;;;;16.52;14.82;;;;;;;8.09;100.00;102205.66;4932358;29;20179;-49
2023/05/13 03:49:18;;;;;;;15.40;13.68;;;;;;;8.08;100.00;102203.88;4948203;29;20175;-47
2023/05/13 03:51:45;;;;;;;15.38;13.93;;;;;;;8.15;100.00;102208.28;4958540;28;20543;-48
2023/05/13 03:54:11;;;;;;;17.73;16.02;;;;;;;8.03;100.00;102211.91;4940381;28;20226;-48
2023/05/13 03:56:38;;;;;;;16.65;14.88;;;;;;;8.08;100.00;102205.66;4936379;29;20178;-48
2023/05/13 03:59:03;;;;;;;16.08;13.98;;;;;;;8.15;100.00;102208.28;4942551;28;20259;-47
2023/05/13 04:01:29;;;;;;;14.75;13.40;;;;;;;8.18;100.00;102218.97;4948146;29;20207;-47
2023/05/13 04:03:55;;;;;;;17.48;15.70;;;;;;;8.17;100.00;102211.81;4933366;29;20701;-48
2023/05/13 04:06:20;;;;;;;15.93;14.35;;;;;;;8.14;100.00;102210.97;4951271;29;20174;-52
2023/05/13 04:08:47;;;;;;;15.52;13.93;;;;;;;8.02;100.00;102218.16;4951091;28;20182;-46
2023/05/13 04:11:14;;;;;;;16.52;14.80;;;;;;;8.01;100.00;102226.16;4947432;29;20747;-51
2023/05/13 04:13:40;;;;;;;16.95;15.15;;;;;;;7.97;100.00;102216.41;4941910;29;20285;-47
2023/05/13 04:16:05;;;;;;;15.25;13.75;;;;;;;8.08;100.00;102222.56;4951096;28;20178;-48
2023/05/13 04:18:32;;;;;;;15.90;14.07;;;;;;;8.10;100.00;102215.44;4949342;28;20175;-53
2023/05/13 04:21:08;;;;;;;14.93;13.43;;;;;;;8.24;100.00;102218.94;4932014;29;20643;-47
2023/05/13 04:23:33;;;;;;;13.27;11.90;;;;;;;8.34;100.00;102209.06;4931838;29;20565;-48
2023/05/13 04:25:59;;;;;;;13.65;12.35;;;;;;;8.36;100.00;102214.41;4932103;29;20234;-47
2023/05/13 04:28:24;;;;;;;15.73;14.25;;;;;;;8.39;100.00;102214.38;4947181;29;20750;-47
2023/05/13 04:30:51;;;;;;;14.57;12.98;;;;;;;8.50;100.00;102228.56;4938368;28;20184;-52
2023/05/13 04:33:17;;;;;;;14.85;13.45;;;;;;;8.49;100.00;102223.25;4952151;28;20194;-50
2023/05/13 04:35:46;;;;;;;14.10;12.80;;;;;;;8.65;100.00;102220.44;4966930;28;20179;-48
2023/05/13 04:38:12;;;;;;;14.80;13.35;;;;;;;8.69;100.00;102232.00;4951040;28;20185;-50
2023/05/13 04:40:37;;;;;;;13.85;12.55;;;;;;;8.80;100.00;102223.88;4950849;29;20189;-48
2023/05/13 04:43:12;;;;;;;15.65;13.30;;;;;;;8.94;100.00;102229.09;4950569;28;20194;-47
2023/05/13 04:45:51;;;;;;;13.90;12.45;;;;;;;9.03;100.00;102224.56;4950884;29;20658;-48
2023/05/13 04:48:17;;;;;;;13.32;12.02;;;;;;;9.11;100.00;102226.28;4944720;28;20266;-48
2023/05/13 04:50:46;;;;;;;13.52;12.32;;;;;;;9.12;100.00;102230.72;4931552;29;20197;-51
2023/05/13 04:53:13;;;;;;;13.50;12.18;;;;;;;9.21;100.00;102239.53;4931477;29;20203;-50
2023/05/13 04:55:38;;;;;;;14.60;12.13;;;;;;;9.48;100.00;102240.16;4954179;28;20190;-50
2023/05/13 04:58:04;;;;;;;13.07;11.68;;;;;;;9.62;100.00;102240.91;4952122;29;20206;-47
2023/05/13 05:00:30;;;;;;;13.50;11.43;;;;;;;9.59;100.00;102246.28;4934759;29;20178;-48
2023/05/13 05:02:55;;;;;;;14.68;11.80;;;;;;;9.75;100.00;102240.72;4950438;28;20241;-48
2023/05/13 05:05:21;;;;;;;12.13;10.85;;;;;;;9.77;100.00;102249.63;4950568;29;20262;-49
2023/05/13 05:07:47;;;;;;;14.65;11.57;;;;;;;9.86;100.00;102255.78;4950048;28;20241;-50
2023/05/13 05:10:14;;;;;;;11.88;10.43;;;;;;;10.05;100.00;102244.81;4935917;29;20178;-50
2023/05/13 05:12:44;;;;;;;13.30;11.23;;;;;;;10.02;100.00;102258.25;4966786;28;20253;-48
2023/05/13 05:15:14;;;;;;;13.05;10.38;;;;;;;10.16;100.00;102248.22;4948547;28;20190;-50
2023/05/13 05:17:41;;;;;;;11.93;9.98;;;;;;;10.26;100.00;102249.88;4934217;28;20186;-46
2023/05/13 05:20:07;;;;;;;15.02;9.98;;;;;;;10.19;100.00;102258.91;4951051;28;20191;-47
2023/05/13 05:22:35;;;;;;;13.77;10.63;;;;;;;10.25;100.00;102250.78;4960115;28;20215;-47
2023/05/13 05:25:00;;;;;;;21.15;10.98;;;;;;;10.32;100.00;102259.69;4964596;28;20243;-48
2023/05/13 05:27:26;;;;;;;17.85;10.52;;;;;;;10.45;100.00;102252.31;4955733;29;20186;-50
2023/05/13 05:29:51;;;;;;;11.25;9.30;;;;;;;10.54;100.00;102251.28;4955465;29;20225;-48
2023/05/13 05:32:18;;;;;;;10.15;9.27;;;;;;;10.82;100.00;102258.03;4947936;28;20202;-50
2023/05/13 05:34:44;;;;;;;12.57;10.55;;;;;;;10.69;100.00;102262.69;4936553;29;20250;-48
2023/05/13 05:37:09;;;;;;;10.75;8.10;;;;;;;10.87;100.00;102257.94;4946537;28;20274;-45
2023/05/13 05:39:37;;;;;;;11.20;9.13;;;;;;;10.81;100.00;102258.91;4958419;28;20243;-48
2023/05/13 05:42:03;;;;;;;11.68;8.68;;;;;;;10.97;100.00;102258.66;4948019;28;20203;-47
2023/05/13 05:44:28;;;;;;;9.65;8.43;;;;;;;10.99;100.00;102254.16;4946886;28;20233;-48
2023/05/13 05:46:55;;;;;;;11.65;8.63;;;;;;;10.96;100.00;102264.94;4951813;29;20757;-46
2023/05/13 05:49:22;;;;;;;14.43;8.32;;;;;;;11.37;100.00;102256.16;4945729;28;20258;-42
2023/05/13 05:51:48;;;;;;;12.27;8.00;;;;;;;11.28;100.00;102254.53;4941099;29;20183;-49
2023/05/13 05:54:14;;;;;;;10.18;7.57;;;;;;;11.30;100.00;102249.13;4943636;29;20302;-44
2023/05/13 05:56:40;;;;;;;10.68;8.05;;;;;;;11.50;100.00;102251.44;4949682;29;20175;-44
2023/05/13 05:59:05;;;;;;;9.85;8.27;;;;;;;11.58;100.00;102257.53;4937895;29;20190;-46
2023/05/13 06:01:35;;;;;;;9.70;7.40;;;;;;;12.11;100.00;102254.69;4944257;29;20192;-48
2023/05/13 06:04:02;;;;;;;9.27;7.93;;;;;;;12.04;100.00;102247.69;4937743;29;20191;-48
2023/05/13 06:06:29;;;;;;;8.82;7.05;;;;;;;12.01;100.00;102245.09;4941473;29;20222;-46
2023/05/13 06:08:55;;;;;;;9.35;7.68;;;;;;;12.08;100.00;102231.47;4924312;29;20277;-45
2023/05/13 06:11:20;;;;;;;8.07;6.93;;;;;;;12.20;100.00;102235.72;4938063;29;20167;-49
2023/05/13 06:13:46;;;;;;;9.98;7.72;;;;;;;12.51;100.00;102225.13;4944869;28;20222;-47
2023/05/13 06:16:12;;;;;;;9.10;6.97;;;;;;;12.47;100.00;102234.16;4942667;29;20191;-50
2023/05/13 06:18:37;;;;;;;9.50;7.43;;;;;;;12.88;100.00;102234.97;4939116;29;20245;-48
2023/05/13 06:21:03;;;;;;;9.27;7.75;;;;;;;12.78;99.12;102234.28;4931153;29;20218;-45
2023/05/13 06:23:29;;;;;;;11.07;7.22;;;;;;;12.94;97.84;102236.59;4938619;29;20194;-47
2023/05/13 06:25:54;;;;;;;11.68;7.50;;;;;;;12.68;97.21;102227.41;4945487;29;20269;-42
2023/05/13 06:28:20;;;;;;;9.13;7.03;;;;;;;13.24;96.90;102229.53;4940610;29;20179;-41
2023/05/13 06:30:48;;;;;;;11.02;7.13;;;;;;;13.94;94.88;102226.69;4945577;29;20210;-42
2023/05/13 06:33:13;;;;;;;10.80;6.35;;;;;;;14.05;92.40;102220.09;4943718;28;20488;-45
2023/05/13 06:35:39;;;;;;;11.27;6.28;;;;;;;14.71;90.60;102226.97;4945196;29;20251;-43
2023/05/13 06:38:06;;;;;;;8.95;6.35;;;;;;;14.56;87.94;102224.78;4928778;29;20182;-42
2023/05/13 06:40:33;;;;;;;9.32;5.70;;;;;;;14.45;85.96;102224.22;4943254;29;20278;-44
2023/05/13 06:42:59;;;;;;;7.75;5.82;;;;;;;14.66;85.02;102214.59;4941870;29;20261;-44
2023/05/13 06:45:29;;;;;;;24.92;6.72;;;;;;;15.09;83.79;102213.16;4935611;29;20645;-47
2023/05/13 06:47:55;;;;;;;8.48;6.47;;;;;;;14.58;83.59;102225.63;4942610;29;20215;-44
2023/05/13 06:50:21;;;;;;;8.38;6.38;;;;;;;14.59;83.98;102222.88;4941441;29;20266;-43
2023/05/13 06:52:47;;;;;;;12.30;6.22;;;;;;;15.35;82.74;102221.19;4943449;28;20210;-46
2023/05/13 06:55:12;;;;;;;7.07;5.65;;;;;;;15.32;81.31;102207.78;4941324;29;20748;-46
2023/05/13 06:57:38;;;;;;;9.02;6.03;;;;;;;15.60;79.33;102207.66;4937287;29;20179;-48
2023/05/13 07:00:04;;;;;;;7.75;6.15;;;;;;;15.64;78.30;102203.03;4942011;28;20223;-48
2023/05/13 07:02:30;;;;;;;8.35;6.35;;;;;;;14.81;79.79;102217.66;4941233;29;20217;-49
2023/05/13 07:04:56;;;;;;;10.85;6.15;;;;;;;15.06;79.96;102215.94;4942197;29;20175;-49
2023/05/13 07:07:21;;;;;;;11.40;6.40;;;;;;;14.39;79.89;102214.53;4942073;29;20185;-45
2023/05/13 07:09:46;;;;;;;10.02;6.22;;;;;;;15.40;80.02;102207.53;4941075;29;20178;-46
2023/05/13 07:12:13;;;;;;;8.63;6.38;;;;;;;15.51;79.23;102208.00;4938179;29;20182;-48
2023/05/13 07:14:38;;;;;;;11.93;6.20;;;;;;;14.81;79.44;102212.25;4941272;29;20274;-45
2023/05/13 07:17:04;;;;;;;9.48;6.35;;;;;;;14.01;81.58;102220.19;4943523;28;20265;-44
2023/05/13 07:19:30;;;;;;;7.57;5.78;;;;;;;14.60;83.17;102234.56;4941079;29;20208;-47
2023/05/13 07:21:55;;;;;;;10.25;6.72;;;;;;;14.43;82.53;102227.88;4955051;28;20199;-47
2023/05/13 07:24:21;;;;;;;8.45;6.50;;;;;;;13.98;84.45;102233.75;4939066;29;20285;-48
2023/05/13 07:26:46;;;;;;;13.35;6.60;;;;;;;13.62;86.39;102237.50;4941707;29;20252;-47
2023/05/13 07:29:12;;;;;;;9.52;6.88;;;;;;;13.58;87.42;102242.13;4939820;29;20608;-47
2023/05/13 07:31:38;;;;;;;11.05;6.70;;;;;;;13.86;88.17;102242.19;4940625;29;20180;-49
2023/05/13 07:34:03;;;;;;;13.25;7.38;;;;;;;13.86;87.90;102244.88;4940982;28;20214;-50
2023/05/13 07:36:29;;;;;;;7.78;6.72;;;;;;;13.89;88.28;102238.53;4938473;28;20198;-51
2023/05/13 07:38:54;;;;;;;9.30;6.50;;;;;;;14.09;88.53;102243.34;4941150;29;20190;-46
2023/05/13 07:41:20;;;;;;;9.55;6.35;;;;;;;13.85;88.17;102240.44;4939284;29;20206;-47
2023/05/13 07:43:45;;;;;;;8.45;6.53;;;;;;;14.07;88.39;102240.66;4936489;29;20207;-49
2023/05/13 07:46:11;;;;;;;9.60;6.55;;;;;;;14.38;88.50;102237.03;4940823;29;20190;-48
2023/05/13 07:48:36;;;;;;;8.15;6.40;;;;;;;14.22;87.39;102242.03;4940213;29;20257;-47
2023/05/13 07:51:02;;;;;;;11.10;6.97;;;;;;;13.83;88.55;102236.91;4943734;29;20167;-48
2023/05/13 07:53:28;;;;;;;13.77;7.78;;;;;;;13.73;89.29;102249.75;4940511;28;20222;-48
2023/05/13 07:55:53;;;;;;;7.40;6.70;;;;;;;13.96;90.46;102251.78;4937064;29;20186;-45
2023/05/13 07:58:19;;;;;;;9.20;6.88;;;;;;;13.95;89.95;102251.81;4940025;29;20235;-47
2023/05/13 08:00:45;;;;;;;8.35;7.10;;;;;;;13.97;89.96;102255.34;4941206;29;20202;-48
2023/05/13 08:03:11;;;;;;;8.57;6.80;;;;;;;14.10;90.10;102245.09;4940640;28;20293;-48
2023/05/13 08:05:36;;;;;;;9.60;7.38;;;;;;;13.72;90.60;102249.81;4939487;29;20183;-50
2023/05/13 08:08:03;;;;;;;10.38;7.63;;;;;;;13.93;90.85;102254.56;4940462;29;20581;-48
2023/05/13 08:10:29;;;;;;;9.48;7.22;;;;;;;13.82;90.81;102262.09;4940877;29;20608;-51
2023/05/13 08:12:56;;;;;;;8.43;7.30;;;;;;;13.81;90.93;102252.22;4938617;29;20191;-51
2023/05/13 08:15:22;;;;;;;8.15;6.90;;;;;;;13.92;90.21;102254.59;4936819;29;20180;-47
2023/05/13 08:17:48;;;;;;;13.90;7.65;;;;;;;13.98;89.96;102258.00;4939751;29;20183;-47
2023/05/13 08:20:14;;;;;;;10.93;7.53;;;;;;;14.23;89.57;102254.56;4944197;29;20665;-46
2023/05/13 08:22:40;;;;;;;8.15;7.07;;;;;;;14.35;89.12;102245.22;4939897;29;20211;-48
2023/05/13 08:25:06;;;;;;;10.73;6.80;;;;;;;14.87;87.94;102245.34;4935139;29;20183;-47
2023/05/13 08:27:31;;;;;;;8.82;6.78;;;;;;;14.81;87.15;102249.16;4936863;29;20520;-50
2023/05/13 08:29:57;;;;;;;8.65;7.55;;;;;;;14.51;87.21;102246.50;4936852;29;20243;-46
2023/05/13 08:32:22;;;;;;;10.15;7.30;;;;;;;14.09;87.85;102254.13;4939740;28;20316;-45
2023/05/13 08:34:48;;;;;;;9.55;7.68;;;;;;;13.65;89.22;102259.88;4939365;29;20646;-48
2023/05/13 08:37:14;;;;;;;11.38;7.80;;;;;;;13.62;90.68;102259.06;4939150;29;20191;-49
2023/05/13 08:39:39;;;;;;;9.65;7.72;;;;;;;13.89;91.24;102262.78;4942465;29;20171;-46
2023/05/13 08:42:07;;;;;;;11.57;8.65;;;;;;;13.83;91.03;102263.84;4939940;29;20572;-46
2023/05/13 08:44:36;;;;;;;11.50;8.35;;;;;;;13.98;90.70;102257.13;4920287;29;20171;-45
2023/05/13 08:47:18;;;;;;;8.38;7.55;;;;;;;14.10;89.95;102266.66;4938861;29;20616;-51
2023/05/13 08:49:45;;;;;;;8.60;7.65;;;;;;;14.24;90.01;102258.16;4941634;29;20598;-44
2023/05/13 08:52:11;;;;;;;10.75;7.38;;;;;;;14.56;89.19;102259.84;4943272;29;20171;-47
2023/05/13 08:54:37;;;;;;;9.65;7.35;;;;;;;14.73;87.92;102256.63;4939890;29;20671;-51
2023/05/13 08:57:03;;;;;;;10.85;7.50;;;;;;;14.48;87.74;102256.50;4942597;29;20247;-47
2023/05/13 08:59:29;;;;;;;12.27;8.40;;;;;;;14.16;87.91;102250.28;4943514;29;20242;-47
2023/05/13 09:01:55;;;;;;;12.95;8.10;;;;;;;14.15;88.35;102260.19;4944355;28;20222;-51
2023/05/13 09:04:21;;;;;;;9.43;8.32;;;;;;;13.88;88.48;102258.31;4940901;29;20596;-51
2023/05/13 09:06:47;;;;;;;10.27;8.45;;;;;;;14.23;89.11;102257.25;4944224;29;20190;-50
2023/05/13 09:09:13;;;;;;;10.70;8.40;;;;;;;14.33;88.92;102263.25;4950403;29;20653;-48
2023/05/13 09:11:39;;;;;;;9.07;8.15;;;;;;;14.18;88.65;102261.91;4942909;29;20166;-47
2023/05/13 09:14:06;;;;;;;9.32;7.65;;;;;;;14.19;88.28;102271.75;4942274;29;20587;-47
2023/05/13 09:16:31;;;;;;;14.32;8.05;;;;;;;14.38;87.80;102270.25;4941996;29;20184;-50
2023/05/13 09:19:03;;;;;;;10.60;8.60;;;;;;;14.31;87.89;102276.78;4944439;29;20183;-46
2023/05/13 09:21:31;;;;;;;10.18;8.00;;;;;;;14.45;87.30;102270.06;4942596;29;20208;-49
2023/05/13 09:24:17;;;;;;;9.93;7.97;;;;;;;14.73;87.32;102265.59;4944093;29;20209;-47
2023/05/13 09:26:43;;;;;;;8.95;7.90;;;;;;;14.29;87.08;102254.38;4943851;29;20611;-47
2023/05/13 09:29:27;;;;;;;14.32;9.07;;;;;;;14.39;87.53;102258.56;4942781;29;20642;-47
2023/05/13 09:31:56;;;;;;;12.82;8.35;;;;;;;14.56;87.90;102252.69;4942780;29;20164;-47
2023/05/13 09:34:27;;;;;;;8.32;7.40;;;;;;;15.30;87.70;102246.59;4935602;29;20227;-52
2023/05/13 09:36:56;;;;;;;11.95;8.05;;;;;;;14.86;86.96;102246.31;4943317;29;20179;-44
2023/05/13 09:39:21;;;;;;;17.42;7.13;;;;;;;16.00;86.49;102232.31;4929394;29;20631;-47
2023/05/13 09:41:47;;;;;;;10.95;7.63;;;;;;;15.58;84.29;102235.69;4943392;29;20194;-47
2023/05/13 09:44:12;;;;;;;13.32;7.43;;;;;;;15.02;84.28;102225.94;4931002;29;20202;-48
2023/05/13 09:46:40;;;;;;;9.50;7.47;;;;;;;14.68;84.85;102229.81;4943074;29;20619;-45
2023/05/13 09:49:06;;;;;;;13.15;8.02;;;;;;;15.00;85.91;102234.13;4945687;29;20695;-48
2023/05/13 09:51:32;;;;;;;9.65;7.75;;;;;;;14.98;85.18;102229.72;4940274;29;20190;-47
2023/05/13 09:54:05;;;;;;;10.88;7.80;;;;;;;14.95;85.11;102244.16;4944976;28;20219;-49
2023/05/13 09:56:33;;;;;;;10.60;7.68;;;;;;;15.34;85.35;102241.03;4941580;29;20179;-47
2023/05/13 09:59:00;;;;;;;14.20;8.02;;;;;;;14.91;85.21;102245.22;4937548;29;20258;-49
2023/05/13 10:01:30;;;;;;;10.15;7.57;;;;;;;15.09;85.19;102238.31;4940419;29;20647;-48
2023/05/13 10:03:58;;;;;;;8.10;7.30;;;;;;;15.39;84.66;102222.84;4940348;29;20218;-52
2023/05/13 10:06:29;;;;;;;9.85;7.18;;;;;;;15.16;83.69;102220.97;4943964;28;20194;-50
2023/05/13 10:08:56;;;;;;;9.60;8.10;;;;;;;14.94;84.87;102231.63;4942913;29;20218;-48
2023/05/13 10:11:23;;;;;;;12.48;7.55;;;;;;;15.30;85.50;102231.25;4938719;29;20187;-48
2023/05/13 10:13:54;;;;;;;9.95;7.85;;;;;;;15.14;84.91;102227.34;4942129;28;20302;-48
2023/05/13 10:16:21;;;;;;;9.45;7.70;;;;;;;14.67;86.28;102228.06;4941121;29;20277;-52
2023/05/13 10:18:47;;;;;;;8.48;7.65;;;;;;;15.06;85.95;102218.63;4941453;29;20191;-47
2023/05/13 10:21:13;;;;;;;10.55;7.70;;;;;;;14.93;86.12;102216.34;4943675;29;20258;-48
2023/05/13 10:23:39;;;;;;;11.00;8.00;;;;;;;15.01;86.60;102229.59;4928126;29;20221;-49
2023/05/13 10:26:05;;;;;;;12.07;8.02;;;;;;;15.43;86.79;102216.38;4943339;29;20182;-48
2023/05/13 10:28:31;;;;;;;10.20;8.38;;;;;;;15.04;86.15;102229.47;4942232;29;20186;-48
2023/05/13 10:30:57;;;;;;;9.00;8.00;;;;;;;15.03;86.90;102228.59;4939757;29;20198;-49
2023/05/13 10:33:23;;;;;;;9.70;6.47;;;;;;;15.84;85.95;102230.22;4942175;28;20685;-47
2023/05/13 10:36:14;;;;;;;11.23;7.43;;;;;;;14.86;85.71;102232.81;4941624;29;20178;-49
2023/05/13 10:38:47;;;;;;;15.68;8.02;;;;;;;14.86;86.27;102213.94;4942884;29;20184;-47
2023/05/13 10:41:39;;;;;;;9.90;7.88;;;;;;;15.03;86.09;102214.22;4943100;29;20303;-46
2023/05/13 10:44:06;;;;;;;7.85;6.95;;;;;;;15.06;86.11;102222.22;4936852;29;20281;-47
2023/05/13 10:46:33;;;;;;;10.40;7.32;;;;;;;15.00;86.63;102203.56;4941791;29;20186;-49
2023/05/13 10:48:59;;;;;;;12.30;7.00;;;;;;;15.29;86.08;102209.75;4940857;29;20214;-48
2023/05/13 10:51:25;;;;;;;9.30;6.55;;;;;;;15.49;84.59;102204.47;4941767;29;20218;-47
2023/05/13 10:53:53;;;;;;;11.30;7.32;;;;;;;15.51;84.09;102207.13;4941392;29;20667;-48
2023/05/13 10:56:24;;;;;;;7.47;6.20;;;;;;;15.61;83.36;102200.44;4938187;29;20190;-47
2023/05/13 10:58:58;;;;;;;9.23;7.18;;;;;;;15.40;83.07;102192.19;4924065;29;20214;-47
2023/05/13 11:01:35;;;;;;;10.02;6.90;;;;;;;15.43;83.61;102194.78;4942582;29;20246;-45
2023/05/13 11:04:04;;;;;;;9.48;6.53;;;;;;;15.55;83.24;102198.00;4937780;29;20222;-46
2023/05/13 11:06:39;;;;;;;15.32;6.80;;;;;;;15.50;82.30;102191.84;4942641;29;20225;-50
2023/05/13 11:09:07;;;;;;;11.25;6.53;;;;;;;15.32;82.52;102194.28;4927617;29;20259;-48
2023/05/13 11:11:34;;;;;;;13.15;6.68;;;;;;;15.26;83.02;102191.81;4939772;29;20623;-48
2023/05/13 11:14:09;;;;;;;9.75;6.22;;;;;;;15.16;83.08;102187.69;4940626;29;20262;-47
2023/05/13 11:16:36;;;;;;;11.20;6.40;;;;;;;15.51;82.88;102191.81;4937012;29;20179;-49
2023/05/13 11:19:03;;;;;;;8.70;6.07;;;;;;;15.84;81.35;102188.81;4941768;29;20180;-50